sensor_id;sensor_type;location;lat;lon;timestamp;P1;durP1;ratioP1;P2;durP2;ratioP2
68192;SDS011;55012;47.562;18.414;2023-07-20T00:02:15;8.13;;;3.80;;
68192;SDS011;55012;47.562;18.414;2023-07-20T00:04:40;5.78;;;3.30;;
68192;SDS011;55012;47.562;18.414;2023-07-20T00:07:06;6.65;;;3.50;;
68192;SDS011;55012;47.562;18.414;2023-07-20T00:09:31;7.15;;;3.50;;
68192;SDS011;55012;47.562;18.414;2023-07-20T00:11:57;5.95;;;3.70;;
68192;SDS011;55012;47.562;18.414;2023-07-20T00:14:24;6.95;;;3.95;;
68192;SDS011;55012;47.562;18.414;2023-07-20T00:16:50;8.85;;;3.88;;
68192;SDS011;55012;47.562;18.414;2023-07-20T00:19:25;7.32;;;3.70;;
68192;SDS011;55012;47.562;18.414;2023-07-20T00:21:52;6.15;;;3.65;;
68192;SDS011;55012;47.562;18.414;2023-07-20T00:24:18;5.60;;;3.30;;
68192;SDS011;55012;47.562;18.414;2023-07-20T00:26:44;7.32;;;3.60;;
68192;SDS011;55012;47.562;18.414;2023-07-20T00:29:10;6.15;;;3.50;;
68192;SDS011;55012;47.562;18.414;2023-07-20T00:31:35;6.35;;;3.55;;
68192;SDS011;55012;47.562;18.414;2023-07-20T00:34:02;5.40;;;3.40;;
68192;SDS011;55012;47.562;18.414;2023-07-20T00:36:28;6.13;;;3.63;;
68192;SDS011;55012;47.562;18.414;2023-07-20T00:38:54;5.28;;;3.13;;
68192;SDS011;55012;47.562;18.414;2023-07-20T00:41:19;8.15;;;3.55;;
68192;SDS011;55012;47.562;18.414;2023-07-20T00:43:45;6.35;;;3.30;;
68192;SDS011;55012;47.562;18.414;2023-07-20T00:46:10;5.32;;;3.30;;
68192;SDS011;55012;47.562;18.414;2023-07-20T00:48:36;4.55;;;3.38;;
68192;SDS011;55012;47.562;18.414;2023-07-20T00:51:02;6.25;;;3.53;;
68192;SDS011;55012;47.562;18.414;2023-07-20T00:53:28;6.18;;;3.22;;
68192;SDS011;55012;47.562;18.414;2023-07-20T00:55:54;7.97;;;3.60;;
68192;SDS011;55012;47.562;18.414;2023-07-20T00:58:20;5.47;;;3.40;;
68192;SDS011;55012;47.562;18.414;2023-07-20T01:00:46;6.75;;;3.33;;
68192;SDS011;55012;47.562;18.414;2023-07-20T01:03:12;7.35;;;3.33;;
68192;SDS011;55012;47.562;18.414;2023-07-20T01:05:42;8.32;;;3.35;;
68192;SDS011;55012;47.562;18.414;2023-07-20T01:08:43;7.75;;;3.45;;
68192;SDS011;55012;47.562;18.414;2023-07-20T01:14:03;4.80;;;3.03;;
68192;SDS011;55012;47.562;18.414;2023-07-20T01:16:29;5.90;;;3.20;;
68192;SDS011;55012;47.562;18.414;2023-07-20T01:18:55;8.48;;;3.20;;
68192;SDS011;55012;47.562;18.414;2023-07-20T01:21:26;6.22;;;3.20;;
68192;SDS011;55012;47.562;18.414;2023-07-20T01:27:11;7.85;;;3.70;;
68192;SDS011;55012;47.562;18.414;2023-07-20T01:32:14;10.02;;;3.40;;
68192;SDS011;55012;47.562;18.414;2023-07-20T01:34:43;5.80;;;3.20;;
68192;SDS011;55012;47.562;18.414;2023-07-20T01:37:09;6.93;;;3.38;;
68192;SDS011;55012;47.562;18.414;2023-07-20T01:39:35;6.93;;;3.75;;
68192;SDS011;55012;47.562;18.414;2023-07-20T01:42:03;5.65;;;3.22;;
68192;SDS011;55012;47.562;18.414;2023-07-20T01:44:28;5.97;;;3.60;;
68192;SDS011;55012;47.562;18.414;2023-07-20T01:46:54;7.93;;;3.53;;
68192;SDS011;55012;47.562;18.414;2023-07-20T01:49:20;6.47;;;3.70;;
68192;SDS011;55012;47.562;18.414;2023-07-20T01:51:45;7.28;;;3.47;;
68192;SDS011;55012;47.562;18.414;2023-07-20T01:54:10;7.32;;;3.85;;
68192;SDS011;55012;47.562;18.414;2023-07-20T01:56:36;7.80;;;4.10;;
68192;SDS011;55012;47.562;18.414;2023-07-20T01:59:01;6.85;;;3.65;;
68192;SDS011;55012;47.562;18.414;2023-07-20T02:01:27;7.70;;;3.97;;
68192;SDS011;55012;47.562;18.414;2023-07-20T02:03:53;8.07;;;3.80;;
68192;SDS011;55012;47.562;18.414;2023-07-20T02:06:19;9.02;;;3.80;;
68192;SDS011;55012;47.562;18.414;2023-07-20T02:08:45;7.97;;;4.22;;
68192;SDS011;55012;47.562;18.414;2023-07-20T02:11:10;6.88;;;4.05;;
68192;SDS011;55012;47.562;18.414;2023-07-20T02:13:36;8.88;;;4.18;;
68192;SDS011;55012;47.562;18.414;2023-07-20T02:16:01;8.18;;;4.20;;
68192;SDS011;55012;47.562;18.414;2023-07-20T02:18:27;8.13;;;4.35;;
68192;SDS011;55012;47.562;18.414;2023-07-20T02:20:53;8.05;;;4.50;;
68192;SDS011;55012;47.562;18.414;2023-07-20T02:23:19;7.05;;;4.05;;
68192;SDS011;55012;47.562;18.414;2023-07-20T02:25:44;7.22;;;4.28;;
68192;SDS011;55012;47.562;18.414;2023-07-20T02:28:12;7.18;;;4.63;;
68192;SDS011;55012;47.562;18.414;2023-07-20T02:30:39;8.60;;;3.85;;
68192;SDS011;55012;47.562;18.414;2023-07-20T02:33:04;6.28;;;3.72;;
68192;SDS011;55012;47.562;18.414;2023-07-20T02:35:31;7.43;;;4.20;;
68192;SDS011;55012;47.562;18.414;2023-07-20T02:37:57;9.95;;;4.13;;
68192;SDS011;55012;47.562;18.414;2023-07-20T02:40:22;8.57;;;3.78;;
68192;SDS011;55012;47.562;18.414;2023-07-20T02:42:48;8.75;;;4.05;;
68192;SDS011;55012;47.562;18.414;2023-07-20T02:45:14;8.77;;;4.28;;
68192;SDS011;55012;47.562;18.414;2023-07-20T02:47:39;7.85;;;4.15;;
68192;SDS011;55012;47.562;18.414;2023-07-20T02:50:06;7.72;;;4.43;;
68192;SDS011;55012;47.562;18.414;2023-07-20T02:52:33;9.10;;;4.70;;
68192;SDS011;55012;47.562;18.414;2023-07-20T02:54:58;9.75;;;4.72;;
68192;SDS011;55012;47.562;18.414;2023-07-20T02:57:23;8.02;;;4.60;;
68192;SDS011;55012;47.562;18.414;2023-07-20T02:59:49;7.82;;;4.38;;
68192;SDS011;55012;47.562;18.414;2023-07-20T03:02:14;9.07;;;4.43;;
68192;SDS011;55012;47.562;18.414;2023-07-20T03:04:40;8.15;;;4.43;;
68192;SDS011;55012;47.562;18.414;2023-07-20T03:07:05;9.35;;;4.20;;
68192;SDS011;55012;47.562;18.414;2023-07-20T03:09:32;8.73;;;4.22;;
68192;SDS011;55012;47.562;18.414;2023-07-20T03:11:57;10.23;;;4.78;;
68192;SDS011;55012;47.562;18.414;2023-07-20T03:14:23;9.80;;;4.38;;
68192;SDS011;55012;47.562;18.414;2023-07-20T03:16:48;8.80;;;4.25;;
68192;SDS011;55012;47.562;18.414;2023-07-20T03:19:14;5.78;;;4.20;;
68192;SDS011;55012;47.562;18.414;2023-07-20T03:21:40;6.00;;;4.07;;
68192;SDS011;55012;47.562;18.414;2023-07-20T03:24:09;7.95;;;4.38;;
68192;SDS011;55012;47.562;18.414;2023-07-20T03:26:34;8.45;;;4.50;;
68192;SDS011;55012;47.562;18.414;2023-07-20T03:29:01;10.13;;;4.95;;
68192;SDS011;55012;47.562;18.414;2023-07-20T03:31:27;6.95;;;4.03;;
68192;SDS011;55012;47.562;18.414;2023-07-20T03:33:52;8.00;;;4.60;;
68192;SDS011;55012;47.562;18.414;2023-07-20T03:36:18;8.20;;;4.65;;
68192;SDS011;55012;47.562;18.414;2023-07-20T03:38:43;9.35;;;4.38;;
68192;SDS011;55012;47.562;18.414;2023-07-20T03:41:08;6.90;;;3.97;;
68192;SDS011;55012;47.562;18.414;2023-07-20T03:43:34;9.40;;;4.28;;
68192;SDS011;55012;47.562;18.414;2023-07-20T03:45:59;9.20;;;4.40;;
68192;SDS011;55012;47.562;18.414;2023-07-20T03:48:25;7.95;;;4.60;;
68192;SDS011;55012;47.562;18.414;2023-07-20T03:50:51;7.90;;;4.38;;
68192;SDS011;55012;47.562;18.414;2023-07-20T03:53:18;9.38;;;4.60;;
68192;SDS011;55012;47.562;18.414;2023-07-20T03:55:45;9.45;;;4.63;;
68192;SDS011;55012;47.562;18.414;2023-07-20T03:58:11;8.10;;;4.57;;
68192;SDS011;55012;47.562;18.414;2023-07-20T04:00:38;9.23;;;4.38;;
68192;SDS011;55012;47.562;18.414;2023-07-20T04:03:03;9.60;;;4.40;;
68192;SDS011;55012;47.562;18.414;2023-07-20T04:05:28;6.65;;;4.10;;
68192;SDS011;55012;47.562;18.414;2023-07-20T04:07:54;7.10;;;4.25;;
68192;SDS011;55012;47.562;18.414;2023-07-20T04:10:20;8.10;;;4.75;;
68192;SDS011;55012;47.562;18.414;2023-07-20T04:12:45;11.52;;;4.88;;
68192;SDS011;55012;47.562;18.414;2023-07-20T04:15:12;8.52;;;4.70;;
68192;SDS011;55012;47.562;18.414;2023-07-20T04:17:41;9.82;;;4.82;;
68192;SDS011;55012;47.562;18.414;2023-07-20T04:20:06;9.10;;;4.65;;
68192;SDS011;55012;47.562;18.414;2023-07-20T04:22:33;7.13;;;4.93;;
68192;SDS011;55012;47.562;18.414;2023-07-20T04:24:58;10.32;;;4.90;;
68192;SDS011;55012;47.562;18.414;2023-07-20T04:27:24;7.55;;;4.75;;
68192;SDS011;55012;47.562;18.414;2023-07-20T04:29:49;7.55;;;4.70;;
68192;SDS011;55012;47.562;18.414;2023-07-20T04:32:15;9.05;;;4.70;;
68192;SDS011;55012;47.562;18.414;2023-07-20T04:34:40;8.07;;;4.50;;
68192;SDS011;55012;47.562;18.414;2023-07-20T04:37:07;10.85;;;4.88;;
68192;SDS011;55012;47.562;18.414;2023-07-20T04:39:33;9.90;;;4.70;;
68192;SDS011;55012;47.562;18.414;2023-07-20T04:41:58;8.05;;;4.88;;
68192;SDS011;55012;47.562;18.414;2023-07-20T04:44:24;9.18;;;5.07;;
68192;SDS011;55012;47.562;18.414;2023-07-20T04:46:49;10.35;;;4.93;;
68192;SDS011;55012;47.562;18.414;2023-07-20T04:49:15;11.73;;;5.22;;
68192;SDS011;55012;47.562;18.414;2023-07-20T04:51:40;9.75;;;5.28;;
68192;SDS011;55012;47.562;18.414;2023-07-20T04:54:06;10.18;;;5.72;;
68192;SDS011;55012;47.562;18.414;2023-07-20T04:56:31;8.27;;;5.25;;
68192;SDS011;55012;47.562;18.414;2023-07-20T04:58:57;9.13;;;4.90;;
68192;SDS011;55012;47.562;18.414;2023-07-20T05:01:23;8.75;;;5.10;;
68192;SDS011;55012;47.562;18.414;2023-07-20T05:03:48;7.97;;;4.57;;
68192;SDS011;55012;47.562;18.414;2023-07-20T05:06:14;8.18;;;4.80;;
68192;SDS011;55012;47.562;18.414;2023-07-20T05:08:40;7.38;;;4.43;;
68192;SDS011;55012;47.562;18.414;2023-07-20T05:11:05;9.68;;;4.50;;
68192;SDS011;55012;47.562;18.414;2023-07-20T05:13:32;6.88;;;4.40;;
68192;SDS011;55012;47.562;18.414;2023-07-20T05:15:57;8.70;;;4.55;;
68192;SDS011;55012;47.562;18.414;2023-07-20T05:18:23;8.48;;;4.70;;
68192;SDS011;55012;47.562;18.414;2023-07-20T05:20:49;6.80;;;4.63;;
68192;SDS011;55012;47.562;18.414;2023-07-20T05:23:16;11.15;;;4.43;;
68192;SDS011;55012;47.562;18.414;2023-07-20T05:25:42;6.65;;;4.22;;
68192;SDS011;55012;47.562;18.414;2023-07-20T05:28:08;8.27;;;4.63;;
68192;SDS011;55012;47.562;18.414;2023-07-20T05:30:33;11.60;;;4.95;;
68192;SDS011;55012;47.562;18.414;2023-07-20T05:32:59;9.38;;;4.85;;
68192;SDS011;55012;47.562;18.414;2023-07-20T05:35:25;9.93;;;5.95;;
68192;SDS011;55012;47.562;18.414;2023-07-20T05:37:51;8.13;;;4.90;;
68192;SDS011;55012;47.562;18.414;2023-07-20T05:40:17;7.78;;;4.70;;
68192;SDS011;55012;47.562;18.414;2023-07-20T05:42:44;7.95;;;4.72;;
68192;SDS011;55012;47.562;18.414;2023-07-20T05:45:14;9.10;;;4.88;;
68192;SDS011;55012;47.562;18.414;2023-07-20T05:47:40;6.40;;;4.55;;
68192;SDS011;55012;47.562;18.414;2023-07-20T05:50:06;8.05;;;5.00;;
68192;SDS011;55012;47.562;18.414;2023-07-20T05:52:32;7.75;;;4.85;;
68192;SDS011;55012;47.562;18.414;2023-07-20T05:54:57;7.63;;;4.90;;
68192;SDS011;55012;47.562;18.414;2023-07-20T05:57:23;9.18;;;4.80;;
68192;SDS011;55012;47.562;18.414;2023-07-20T05:59:49;10.02;;;5.05;;
68192;SDS011;55012;47.562;18.414;2023-07-20T06:02:14;5.97;;;4.30;;
68192;SDS011;55012;47.562;18.414;2023-07-20T06:04:40;11.07;;;5.15;;
68192;SDS011;55012;47.562;18.414;2023-07-20T06:07:05;12.50;;;4.97;;
68192;SDS011;55012;47.562;18.414;2023-07-20T06:09:33;9.80;;;5.20;;
68192;SDS011;55012;47.562;18.414;2023-07-20T06:11:59;7.40;;;4.75;;
68192;SDS011;55012;47.562;18.414;2023-07-20T06:14:24;10.88;;;5.10;;
68192;SDS011;55012;47.562;18.414;2023-07-20T06:16:49;8.18;;;4.80;;
68192;SDS011;55012;47.562;18.414;2023-07-20T06:19:15;9.77;;;4.68;;
68192;SDS011;55012;47.562;18.414;2023-07-20T06:21:55;9.82;;;4.60;;
68192;SDS011;55012;47.562;18.414;2023-07-20T06:24:21;7.55;;;4.72;;
68192;SDS011;55012;47.562;18.414;2023-07-20T06:26:46;6.63;;;4.30;;
68192;SDS011;55012;47.562;18.414;2023-07-20T06:29:12;7.55;;;4.75;;
68192;SDS011;55012;47.562;18.414;2023-07-20T06:31:37;7.97;;;5.03;;
68192;SDS011;55012;47.562;18.414;2023-07-20T06:34:03;9.45;;;5.03;;
68192;SDS011;55012;47.562;18.414;2023-07-20T06:36:29;9.30;;;4.57;;
68192;SDS011;55012;47.562;18.414;2023-07-20T06:38:55;9.60;;;4.65;;
68192;SDS011;55012;47.562;18.414;2023-07-20T06:41:20;6.28;;;4.50;;
68192;SDS011;55012;47.562;18.414;2023-07-20T06:43:46;7.68;;;4.20;;
68192;SDS011;55012;47.562;18.414;2023-07-20T06:46:12;6.55;;;4.22;;
68192;SDS011;55012;47.562;18.414;2023-07-20T06:48:38;6.65;;;4.38;;
68192;SDS011;55012;47.562;18.414;2023-07-20T06:51:03;9.23;;;4.68;;
68192;SDS011;55012;47.562;18.414;2023-07-20T06:53:29;8.55;;;4.22;;
68192;SDS011;55012;47.562;18.414;2023-07-20T06:55:55;6.55;;;4.35;;
68192;SDS011;55012;47.562;18.414;2023-07-20T06:58:23;6.20;;;4.22;;
68192;SDS011;55012;47.562;18.414;2023-07-20T07:00:49;7.63;;;4.20;;
68192;SDS011;55012;47.562;18.414;2023-07-20T07:03:15;5.78;;;4.30;;
68192;SDS011;55012;47.562;18.414;2023-07-20T07:05:41;6.93;;;4.25;;
68192;SDS011;55012;47.562;18.414;2023-07-20T07:08:06;7.13;;;4.40;;
68192;SDS011;55012;47.562;18.414;2023-07-20T07:10:33;7.47;;;4.60;;
68192;SDS011;55012;47.562;18.414;2023-07-20T07:13:00;7.88;;;4.32;;
68192;SDS011;55012;47.562;18.414;2023-07-20T07:15:26;6.90;;;4.15;;
68192;SDS011;55012;47.562;18.414;2023-07-20T07:17:52;7.22;;;4.20;;
68192;SDS011;55012;47.562;18.414;2023-07-20T07:20:18;8.13;;;4.20;;
68192;SDS011;55012;47.562;18.414;2023-07-20T07:22:43;6.25;;;3.90;;
68192;SDS011;55012;47.562;18.414;2023-07-20T07:25:10;5.28;;;3.88;;
68192;SDS011;55012;47.562;18.414;2023-07-20T07:27:36;5.60;;;3.80;;
68192;SDS011;55012;47.562;18.414;2023-07-20T07:30:02;5.88;;;4.03;;
68192;SDS011;55012;47.562;18.414;2023-07-20T07:32:28;8.63;;;3.92;;
68192;SDS011;55012;47.562;18.414;2023-07-20T07:34:53;5.63;;;3.58;;
68192;SDS011;55012;47.562;18.414;2023-07-20T07:37:19;7.65;;;3.63;;
68192;SDS011;55012;47.562;18.414;2023-07-20T07:39:45;7.22;;;3.88;;
68192;SDS011;55012;47.562;18.414;2023-07-20T07:42:11;5.35;;;3.47;;
68192;SDS011;55012;47.562;18.414;2023-07-20T07:44:37;5.10;;;3.10;;
68192;SDS011;55012;47.562;18.414;2023-07-20T07:47:03;6.13;;;3.08;;
68192;SDS011;55012;47.562;18.414;2023-07-20T07:49:29;6.60;;;2.75;;
68192;SDS011;55012;47.562;18.414;2023-07-20T07:51:54;6.53;;;3.40;;
68192;SDS011;55012;47.562;18.414;2023-07-20T07:54:20;4.88;;;3.20;;
68192;SDS011;55012;47.562;18.414;2023-07-20T07:56:45;6.05;;;3.00;;
68192;SDS011;55012;47.562;18.414;2023-07-20T07:59:11;5.50;;;3.10;;
68192;SDS011;55012;47.562;18.414;2023-07-20T08:01:36;6.03;;;3.63;;
68192;SDS011;55012;47.562;18.414;2023-07-20T08:04:02;4.65;;;3.20;;
68192;SDS011;55012;47.562;18.414;2023-07-20T08:06:28;6.07;;;3.13;;
68192;SDS011;55012;47.562;18.414;2023-07-20T08:08:54;4.78;;;3.10;;
68192;SDS011;55012;47.562;18.414;2023-07-20T08:11:19;4.32;;;3.13;;
68192;SDS011;55012;47.562;18.414;2023-07-20T08:13:45;5.13;;;3.38;;
68192;SDS011;55012;47.562;18.414;2023-07-20T08:16:10;7.78;;;2.80;;
68192;SDS011;55012;47.562;18.414;2023-07-20T08:18:36;4.07;;;3.03;;
68192;SDS011;55012;47.562;18.414;2023-07-20T08:21:01;4.47;;;3.03;;
68192;SDS011;55012;47.562;18.414;2023-07-20T08:23:27;6.60;;;3.00;;
68192;SDS011;55012;47.562;18.414;2023-07-20T08:25:53;8.27;;;3.35;;
68192;SDS011;55012;47.562;18.414;2023-07-20T08:28:18;8.60;;;3.25;;
68192;SDS011;55012;47.562;18.414;2023-07-20T08:30:46;5.80;;;3.20;;
68192;SDS011;55012;47.562;18.414;2023-07-20T08:33:16;5.70;;;3.20;;
68192;SDS011;55012;47.562;18.414;2023-07-20T08:35:44;7.88;;;3.30;;
68192;SDS011;55012;47.562;18.414;2023-07-20T08:38:09;5.03;;;2.95;;
68192;SDS011;55012;47.562;18.414;2023-07-20T08:40:42;6.30;;;3.15;;
68192;SDS011;55012;47.562;18.414;2023-07-20T08:43:12;5.17;;;2.83;;
68192;SDS011;55012;47.562;18.414;2023-07-20T08:45:39;7.18;;;3.00;;
68192;SDS011;55012;47.562;18.414;2023-07-20T08:48:05;5.53;;;3.08;;
68192;SDS011;55012;47.562;18.414;2023-07-20T08:50:33;6.45;;;3.03;;
68192;SDS011;55012;47.562;18.414;2023-07-20T08:52:59;5.47;;;3.10;;
68192;SDS011;55012;47.562;18.414;2023-07-20T08:55:26;8.20;;;3.17;;
68192;SDS011;55012;47.562;18.414;2023-07-20T08:57:53;4.38;;;3.08;;
68192;SDS011;55012;47.562;18.414;2023-07-20T09:00:20;11.38;;;3.75;;
68192;SDS011;55012;47.562;18.414;2023-07-20T09:02:47;4.45;;;3.25;;
68192;SDS011;55012;47.562;18.414;2023-07-20T09:05:18;6.35;;;3.10;;
68192;SDS011;55012;47.562;18.414;2023-07-20T09:07:44;4.15;;;3.08;;
68192;SDS011;55012;47.562;18.414;2023-07-20T09:10:10;5.53;;;3.00;;
68192;SDS011;55012;47.562;18.414;2023-07-20T09:12:37;6.88;;;3.33;;
68192;SDS011;55012;47.562;18.414;2023-07-20T09:15:04;6.20;;;3.45;;
68192;SDS011;55012;47.562;18.414;2023-07-20T09:17:30;5.63;;;3.10;;
68192;SDS011;55012;47.562;18.414;2023-07-20T09:19:56;5.80;;;3.50;;
68192;SDS011;55012;47.562;18.414;2023-07-20T09:22:22;5.03;;;2.80;;
68192;SDS011;55012;47.562;18.414;2023-07-20T09:24:55;6.10;;;2.70;;
68192;SDS011;55012;47.562;18.414;2023-07-20T09:27:21;6.00;;;3.00;;
68192;SDS011;55012;47.562;18.414;2023-07-20T09:29:50;7.47;;;3.25;;
68192;SDS011;55012;47.562;18.414;2023-07-20T09:32:20;4.70;;;3.10;;
68192;SDS011;55012;47.562;18.414;2023-07-20T09:34:46;4.82;;;2.97;;
68192;SDS011;55012;47.562;18.414;2023-07-20T09:37:12;8.07;;;3.33;;
68192;SDS011;55012;47.562;18.414;2023-07-20T09:39:44;4.57;;;3.10;;
68192;SDS011;55012;47.562;18.414;2023-07-20T09:42:11;5.68;;;2.90;;
68192;SDS011;55012;47.562;18.414;2023-07-20T09:44:38;4.45;;;3.15;;
68192;SDS011;55012;47.562;18.414;2023-07-20T09:47:04;8.95;;;3.17;;
68192;SDS011;55012;47.562;18.414;2023-07-20T09:49:30;7.63;;;3.20;;
68192;SDS011;55012;47.562;18.414;2023-07-20T09:51:57;5.32;;;2.90;;
68192;SDS011;55012;47.562;18.414;2023-07-20T09:54:25;4.95;;;2.78;;
68192;SDS011;55012;47.562;18.414;2023-07-20T09:56:52;4.22;;;2.70;;
68192;SDS011;55012;47.562;18.414;2023-07-20T09:59:18;7.75;;;3.22;;
68192;SDS011;55012;47.562;18.414;2023-07-20T10:01:44;7.00;;;2.85;;
68192;SDS011;55012;47.562;18.414;2023-07-20T10:04:11;5.85;;;2.97;;
68192;SDS011;55012;47.562;18.414;2023-07-20T10:06:39;4.30;;;2.80;;
68192;SDS011;55012;47.562;18.414;2023-07-20T10:09:07;7.03;;;3.00;;
68192;SDS011;55012;47.562;18.414;2023-07-20T10:11:35;5.40;;;2.63;;
68192;SDS011;55012;47.562;18.414;2023-07-20T10:14:04;5.43;;;3.10;;
68192;SDS011;55012;47.562;18.414;2023-07-20T10:16:36;4.60;;;2.80;;
68192;SDS011;55012;47.562;18.414;2023-07-20T10:19:27;7.65;;;2.80;;
68192;SDS011;55012;47.562;18.414;2023-07-20T10:22:03;4.53;;;2.63;;
68192;SDS011;55012;47.562;18.414;2023-07-20T10:24:35;7.18;;;3.25;;
68192;SDS011;55012;47.562;18.414;2023-07-20T10:27:02;4.65;;;2.70;;
68192;SDS011;55012;47.562;18.414;2023-07-20T10:29:27;5.30;;;2.90;;
68192;SDS011;55012;47.562;18.414;2023-07-20T10:31:54;7.22;;;3.20;;
68192;SDS011;55012;47.562;18.414;2023-07-20T10:34:21;5.65;;;3.08;;
68192;SDS011;55012;47.562;18.414;2023-07-20T10:36:47;6.53;;;3.10;;
68192;SDS011;55012;47.562;18.414;2023-07-20T10:39:24;6.90;;;3.60;;
68192;SDS011;55012;47.562;18.414;2023-07-20T10:41:59;5.25;;;3.20;;
68192;SDS011;55012;47.562;18.414;2023-07-20T10:44:28;4.60;;;3.15;;
68192;SDS011;55012;47.562;18.414;2023-07-20T10:46:58;4.90;;;3.35;;
68192;SDS011;55012;47.562;18.414;2023-07-20T10:49:25;6.10;;;3.60;;
68192;SDS011;55012;47.562;18.414;2023-07-20T10:51:58;4.97;;;3.45;;
68192;SDS011;55012;47.562;18.414;2023-07-20T10:56:50;8.45;;;3.63;;
68192;SDS011;55012;47.562;18.414;2023-07-20T11:04:21;8.77;;;3.40;;
68192;SDS011;55012;47.562;18.414;2023-07-20T11:07:05;5.55;;;3.00;;
68192;SDS011;55012;47.562;18.414;2023-07-20T11:09:34;4.30;;;3.17;;
68192;SDS011;55012;47.562;18.414;2023-07-20T11:12:11;7.88;;;3.40;;
68192;SDS011;55012;47.562;18.414;2023-07-20T11:14:41;5.10;;;2.97;;
68192;SDS011;55012;47.562;18.414;2023-07-20T11:17:14;5.03;;;3.10;;
68192;SDS011;55012;47.562;18.414;2023-07-20T11:19:41;5.97;;;2.78;;
68192;SDS011;55012;47.562;18.414;2023-07-20T11:22:07;4.45;;;2.83;;
68192;SDS011;55012;47.562;18.414;2023-07-20T11:24:39;4.28;;;2.83;;
68192;SDS011;55012;47.562;18.414;2023-07-20T11:27:05;4.93;;;3.15;;
68192;SDS011;55012;47.562;18.414;2023-07-20T11:29:31;9.13;;;3.00;;
68192;SDS011;55012;47.562;18.414;2023-07-20T11:31:56;5.38;;;2.97;;
68192;SDS011;55012;47.562;18.414;2023-07-20T11:34:25;4.40;;;2.90;;
68192;SDS011;55012;47.562;18.414;2023-07-20T11:36:52;5.55;;;2.90;;
68192;SDS011;55012;47.562;18.414;2023-07-20T11:39:18;8.02;;;2.90;;
68192;SDS011;55012;47.562;18.414;2023-07-20T11:41:51;5.88;;;3.10;;
68192;SDS011;55012;47.562;18.414;2023-07-20T11:44:21;7.18;;;3.00;;
68192;SDS011;55012;47.562;18.414;2023-07-20T11:46:53;4.88;;;2.92;;
68192;SDS011;55012;47.562;18.414;2023-07-20T11:49:25;7.50;;;2.70;;
68192;SDS011;55012;47.562;18.414;2023-07-20T11:51:50;6.35;;;2.60;;
68192;SDS011;55012;47.562;18.414;2023-07-20T11:54:16;5.13;;;2.97;;
68192;SDS011;55012;47.562;18.414;2023-07-20T11:56:42;5.85;;;3.30;;
68192;SDS011;55012;47.562;18.414;2023-07-20T11:59:08;4.05;;;3.13;;
68192;SDS011;55012;47.562;18.414;2023-07-20T12:01:33;4.07;;;3.03;;
68192;SDS011;55012;47.562;18.414;2023-07-20T12:04:00;5.65;;;2.92;;
68192;SDS011;55012;47.562;18.414;2023-07-20T12:06:27;4.97;;;3.20;;
68192;SDS011;55012;47.562;18.414;2023-07-20T12:08:56;4.00;;;3.08;;
68192;SDS011;55012;47.562;18.414;2023-07-20T12:13:58;4.93;;;3.20;;
68192;SDS011;55012;47.562;18.414;2023-07-20T12:16:26;3.58;;;3.00;;
68192;SDS011;55012;47.562;18.414;2023-07-20T12:18:58;5.93;;;2.85;;
68192;SDS011;55012;47.562;18.414;2023-07-20T12:21:42;4.15;;;2.72;;
68192;SDS011;55012;47.562;18.414;2023-07-20T12:24:07;4.90;;;2.90;;
68192;SDS011;55012;47.562;18.414;2023-07-20T12:26:35;3.42;;;2.50;;
68192;SDS011;55012;47.562;18.414;2023-07-20T12:29:01;6.50;;;2.60;;
68192;SDS011;55012;47.562;18.414;2023-07-20T12:31:28;4.18;;;2.50;;
68192;SDS011;55012;47.562;18.414;2023-07-20T12:33:56;3.70;;;2.80;;
68192;SDS011;55012;47.562;18.414;2023-07-20T12:36:22;4.63;;;2.42;;
68192;SDS011;55012;47.562;18.414;2023-07-20T12:38:48;5.80;;;2.70;;
68192;SDS011;55012;47.562;18.414;2023-07-20T12:41:13;5.05;;;2.50;;
68192;SDS011;55012;47.562;18.414;2023-07-20T12:43:42;3.85;;;2.70;;
68192;SDS011;55012;47.562;18.414;2023-07-20T12:46:08;4.68;;;2.50;;
68192;SDS011;55012;47.562;18.414;2023-07-20T12:48:35;4.03;;;2.63;;
68192;SDS011;55012;47.562;18.414;2023-07-20T12:51:06;4.65;;;2.60;;
68192;SDS011;55012;47.562;18.414;2023-07-20T12:53:31;3.45;;;2.30;;
68192;SDS011;55012;47.562;18.414;2023-07-20T12:55:58;3.47;;;2.60;;
68192;SDS011;55012;47.562;18.414;2023-07-20T12:58:24;6.05;;;2.58;;
68192;SDS011;55012;47.562;18.414;2023-07-20T13:00:50;2.78;;;2.50;;
68192;SDS011;55012;47.562;18.414;2023-07-20T13:03:15;3.40;;;2.50;;
68192;SDS011;55012;47.562;18.414;2023-07-20T13:05:43;3.55;;;2.30;;
68192;SDS011;55012;47.562;18.414;2023-07-20T13:08:09;4.25;;;2.50;;
68192;SDS011;55012;47.562;18.414;2023-07-20T13:10:34;4.47;;;2.63;;
68192;SDS011;55012;47.562;18.414;2023-07-20T13:13:00;6.32;;;2.42;;
68192;SDS011;55012;47.562;18.414;2023-07-20T13:15:29;4.90;;;2.45;;
68192;SDS011;55012;47.562;18.414;2023-07-20T13:17:57;6.25;;;2.50;;
68192;SDS011;55012;47.562;18.414;2023-07-20T13:20:22;4.25;;;2.30;;
68192;SDS011;55012;47.562;18.414;2023-07-20T13:22:48;3.47;;;2.60;;
68192;SDS011;55012;47.562;18.414;2023-07-20T13:25:14;2.80;;;2.28;;
68192;SDS011;55012;47.562;18.414;2023-07-20T13:27:39;3.08;;;2.40;;
68192;SDS011;55012;47.562;18.414;2023-07-20T13:30:05;5.32;;;2.55;;
68192;SDS011;55012;47.562;18.414;2023-07-20T13:32:38;5.03;;;2.33;;
68192;SDS011;55012;47.562;18.414;2023-07-20T13:35:04;4.32;;;2.38;;
68192;SDS011;55012;47.562;18.414;2023-07-20T13:37:29;4.53;;;2.55;;
68192;SDS011;55012;47.562;18.414;2023-07-20T13:39:55;6.93;;;2.60;;
68192;SDS011;55012;47.562;18.414;2023-07-20T13:42:20;3.53;;;2.08;;
68192;SDS011;55012;47.562;18.414;2023-07-20T13:44:47;6.28;;;2.20;;
68192;SDS011;55012;47.562;18.414;2023-07-20T13:47:13;3.83;;;2.40;;
68192;SDS011;55012;47.562;18.414;2023-07-20T13:49:39;5.30;;;2.20;;
68192;SDS011;55012;47.562;18.414;2023-07-20T13:52:05;4.03;;;2.13;;
68192;SDS011;55012;47.562;18.414;2023-07-20T13:54:30;3.35;;;2.30;;
68192;SDS011;55012;47.562;18.414;2023-07-20T13:56:56;3.78;;;2.10;;
68192;SDS011;55012;47.562;18.414;2023-07-20T13:59:21;4.60;;;2.40;;
68192;SDS011;55012;47.562;18.414;2023-07-20T14:01:48;4.32;;;2.33;;
68192;SDS011;55012;47.562;18.414;2023-07-20T14:04:14;4.53;;;2.30;;
68192;SDS011;55012;47.562;18.414;2023-07-20T14:06:42;4.13;;;2.20;;
68192;SDS011;55012;47.562;18.414;2023-07-20T14:09:08;2.95;;;2.03;;
68192;SDS011;55012;47.562;18.414;2023-07-20T14:11:34;4.50;;;2.20;;
68192;SDS011;55012;47.562;18.414;2023-07-20T14:13:59;4.35;;;2.30;;
68192;SDS011;55012;47.562;18.414;2023-07-20T14:16:25;3.33;;;2.17;;
68192;SDS011;55012;47.562;18.414;2023-07-20T14:18:51;5.03;;;2.50;;
68192;SDS011;55012;47.562;18.414;2023-07-20T14:21:17;3.97;;;2.50;;
68192;SDS011;55012;47.562;18.414;2023-07-20T14:23:47;4.80;;;2.45;;
68192;SDS011;55012;47.562;18.414;2023-07-20T14:26:14;3.60;;;2.30;;
68192;SDS011;55012;47.562;18.414;2023-07-20T14:28:40;5.25;;;2.70;;
68192;SDS011;55012;47.562;18.414;2023-07-20T14:31:06;6.28;;;2.35;;
68192;SDS011;55012;47.562;18.414;2023-07-20T14:33:32;5.32;;;2.30;;
68192;SDS011;55012;47.562;18.414;2023-07-20T14:35:58;6.40;;;2.67;;
68192;SDS011;55012;47.562;18.414;2023-07-20T14:38:23;6.72;;;2.50;;
68192;SDS011;55012;47.562;18.414;2023-07-20T14:40:49;4.40;;;2.70;;
68192;SDS011;55012;47.562;18.414;2023-07-20T14:43:14;5.45;;;2.47;;
68192;SDS011;55012;47.562;18.414;2023-07-20T14:45:43;3.50;;;2.42;;
68192;SDS011;55012;47.562;18.414;2023-07-20T14:48:08;3.92;;;2.40;;
68192;SDS011;55012;47.562;18.414;2023-07-20T14:50:34;3.92;;;2.50;;